Nieuw Amsterdam — PBWQ — position and weather

sailwx.info

Track history (hours):
 
Tides and Currents Weather Stations Pressure Air Temp Water Temp Dewpoint Dewpoint Depression Visibility Wind Speed Wind Dir Waves Ship Positions

Nieuw Amsterdam

Last reported at 2015-Sep-04 07:31 UTC. Time now 2015-Sep-04 07:55 UTC.
Position N 42°26' E 018°46'.

Length 285 m; draft 8 m.

Type: Ship. MMSI: 246648000.

Date/timePositionNaut miles runAvg speedWind from/ knotsBaromVisibWave heightAir tempDewpointWater temp
2015-Sep-04 07:31N 42°26' E 018°46'0 0.0
2015-Sep-04 06:31N 42°26' E 018°46'0 0.0
2015-Sep-04 05:33N 42°26' E 018°46'4 4.1
2015-Sep-04 04:33N 42°28' E 018°41'7 6.7
2015-Sep-04 03:28N 42°24' E 018°32'7 8.0
2015-Sep-04 02:33N 42°17' E 018°28'9 8.8
2015-Sep-04 01:33N 42°10' E 018°22'8 8.4
2015-Sep-04 00:33N 42°10' E 018°11'9 8.7
2015-Sep-03 23:33N 42°14' E 018°01'8 8.1
2015-Sep-03 22:33N 42°20' E 017°53'9 9.3
2015-Sep-03 21:33N 42°29' E 017°59'10 0.6
2015-Sep-03 04:15N 42°38' E 017°56'8 9.5
2015-Sep-03 03:24N 42°38' E 017°45'9 8.9
2015-Sep-03 02:20N 42°38' E 017°33'7 9.0
2015-Sep-03 01:33N 42°38' E 017°23'1710.9
2015-Sep-03 00:00N 42°36' E 017°00'79 8.7 32.5 27.6
2015-Sep-02 15:00N 43°00' E 015°18'1110.6 100 / 61011.110.8 27.719.226.7
2015-Sep-02 14:00N 43°06' E 015°06'   100 / 61011.210.8 27.620.926.1
2015-Aug-30 20:00N 43°06' E 014°54'44611.2 260 / 101019.910.8 25.723.426.2
2015-Aug-29 04:00N 37°18' E 021°00'12015.2 050 / 91017.527.0 0.525.416.826.8
2015-Aug-28 20:04N 36°39' E 023°23'1020.1
2015-Aug-28 19:33N 36°48' E 023°28'2319.3
2015-Aug-28 18:21N 37°11' E 023°36'1518.7
2015-Aug-28 17:33N 37°26' E 023°39'1717.2
2015-Aug-28 16:33N 37°43' E 023°39'1413.6
2015-Aug-28 15:34N 37°56' E 023°38'1 0.5
2015-Aug-28 14:31N 37°56' E 023°38'0 0.0
2015-Aug-28 13:31N 37°56' E 023°38'0 0.0
2015-Aug-28 12:31N 37°56' E 023°38'0 0.0
2015-Aug-28 11:31N 37°56' E 023°38'0 0.0
2015-Aug-28 10:31N 37°56' E 023°38'0 0.0
2015-Aug-28 09:31N 37°56' E 023°38'0 0.0
2015-Aug-28 08:31N 37°56' E 023°38'0 0.0
2015-Aug-28 07:31N 37°56' E 023°38'0 0.0
2015-Aug-28 06:31N 37°56' E 023°38'0 0.0
2015-Aug-28 05:33N 37°56' E 023°38'5 5.4
2015-Aug-28 04:34N 37°51' E 023°39'1515.2
2015-Aug-28 03:34N 37°39' E 023°50'4314.2
2015-Aug-28 00:31N 37°33' E 024°44'1415.2
2015-Aug-27 23:34N 37°31' E 025°02'1515.5
2015-Aug-27 22:33N 37°33' E 025°21'1616.2
2015-Aug-27 21:34N 37°40' E 025°40'1615.7
2015-Aug-27 20:31N 37°44' E 025°60'14 0.6
2015-Aug-26 22:00N 37°54' E 026°12'69 3.8 360 / 311011.110.8 2.024.516.524.2
2015-Aug-26 04:00N 39°00' E 025°48'13113.1 010 / 181013.8 5.4 1.521.918.923.1
2015-Aug-25 18:00N 40°42' E 027°36'4518.3 050 / 251016.210.8 25.018.025.3
2015-Aug-25 15:32N 40°53' E 028°34'1616.6
2015-Aug-25 14:32N 40°56' E 028°55'  
Track history (hours):
 
Tides and Currents Weather Stations Pressure Air Temp Water Temp Dewpoint Dewpoint Depression Visibility Wind Speed Wind Dir Waves Ship Positions

Nieuw Amsterdam

Last reported at 2015-Sep-04 07:31 UTC. Time now 2015-Sep-04 07:55 UTC.
Position N 42°26' E 018°46'.

Length 285 m; draft 8 m.

Type: Ship. MMSI: 246648000.

Date/timePositionNaut miles runAvg speedWind from/ knotsBaromVisibWave heightAir tempDewpointWater temp
2015-Sep-04 07:31N 42°26' E 018°46'0 0.0
2015-Sep-04 06:31N 42°26' E 018°46'0 0.0
2015-Sep-04 05:33N 42°26' E 018°46'4 4.1
2015-Sep-04 04:33N 42°28' E 018°41'7 6.7
2015-Sep-04 03:28N 42°24' E 018°32'7 8.0
2015-Sep-04 02:33N 42°17' E 018°28'9 8.8
2015-Sep-04 01:33N 42°10' E 018°22'8 8.4
2015-Sep-04 00:33N 42°10' E 018°11'9 8.7
2015-Sep-03 23:33N 42°14' E 018°01'8 8.1
2015-Sep-03 22:33N 42°20' E 017°53'9 9.3
2015-Sep-03 21:33N 42°29' E 017°59'10 0.6
2015-Sep-03 04:15N 42°38' E 017°56'8 9.5
2015-Sep-03 03:24N 42°38' E 017°45'9 8.9
2015-Sep-03 02:20N 42°38' E 017°33'7 9.0
2015-Sep-03 01:33N 42°38' E 017°23'1710.9
2015-Sep-03 00:00N 42°36' E 017°00'79 8.7 32.5 27.6
2015-Sep-02 15:00N 43°00' E 015°18'1110.6 100 / 61011.110.8 27.719.226.7
2015-Sep-02 14:00N 43°06' E 015°06'   100 / 61011.210.8 27.620.926.1
2015-Aug-30 20:00N 43°06' E 014°54'44611.2 260 / 101019.910.8 25.723.426.2
2015-Aug-29 04:00N 37°18' E 021°00'12015.2 050 / 91017.527.0 0.525.416.826.8
2015-Aug-28 20:04N 36°39' E 023°23'1020.1
2015-Aug-28 19:33N 36°48' E 023°28'2319.3
2015-Aug-28 18:21N 37°11' E 023°36'1518.7
2015-Aug-28 17:33N 37°26' E 023°39'1717.2
2015-Aug-28 16:33N 37°43' E 023°39'1413.6
2015-Aug-28 15:34N 37°56' E 023°38'1 0.5
2015-Aug-28 14:31N 37°56' E 023°38'0 0.0
2015-Aug-28 13:31N 37°56' E 023°38'0 0.0
2015-Aug-28 12:31N 37°56' E 023°38'0 0.0
2015-Aug-28 11:31N 37°56' E 023°38'0 0.0
2015-Aug-28 10:31N 37°56' E 023°38'0 0.0
2015-Aug-28 09:31N 37°56' E 023°38'0 0.0
2015-Aug-28 08:31N 37°56' E 023°38'0 0.0
2015-Aug-28 07:31N 37°56' E 023°38'0 0.0
2015-Aug-28 06:31N 37°56' E 023°38'0 0.0
2015-Aug-28 05:33N 37°56' E 023°38'5 5.4
2015-Aug-28 04:34N 37°51' E 023°39'1515.2
2015-Aug-28 03:34N 37°39' E 023°50'4314.2
2015-Aug-28 00:31N 37°33' E 024°44'1415.2
2015-Aug-27 23:34N 37°31' E 025°02'1515.5
2015-Aug-27 22:33N 37°33' E 025°21'1616.2
2015-Aug-27 21:34N 37°40' E 025°40'1615.7
2015-Aug-27 20:31N 37°44' E 025°60'14 0.6
2015-Aug-26 22:00N 37°54' E 026°12'69 3.8 360 / 311011.110.8 2.024.516.524.2
2015-Aug-26 04:00N 39°00' E 025°48'13113.1 010 / 181013.8 5.4 1.521.918.923.1
2015-Aug-25 18:00N 40°42' E 027°36'4518.3 050 / 251016.210.8 25.018.025.3
2015-Aug-25 15:32N 40°53' E 028°34'1616.6
2015-Aug-25 14:32N 40°56' E 028°55'  

Dump ship's entire track history